CST,Max TemperatureF,Mean TemperatureF,Min TemperatureF,Max Dew PointF,MeanDew PointF,Min DewpointF,Max Humidity, Mean Humidity, Min Humidity, Max Sea Level PressureIn, Mean Sea Level PressureIn, Min Sea Level PressureIn, Max VisibilityMiles, Mean VisibilityMiles, Min VisibilityMiles, Max Wind SpeedMPH, Mean Wind SpeedMPH, Max Gust SpeedMPH,PrecipitationIn, CloudCover, Events, WindDirDegrees
2012-12-1,35,32,28,34,31,26,100,93,87,30.04,29.81,29.70,5,1,0,15,6,22,0.00,8,Fog-Rain,158
2012-12-2,35,34,32,34,32,30,100,93,87,29.98,29.87,29.72,7,2,0,14,4,22,0.00,8,Fog,169
2012-12-3,46,40,28,45,38,18,100,86,64,29.75,29.57,29.44,10,6,1,20,9,31,0.01,7,Rain,214
2012-12-4,24,16,8,13,7,3,83,69,60,30.46,30.16,29.81,10,10,9,20,12,31,0.00,5,Snow,295
2012-12-5,33,16,3,18,9,-2,88,69,54,30.45,30.21,29.84,10,10,10,15,5,22,0.00,1,,151
2012-12-6,36,30,21,27,22,14,75,71,54,29.99,29.80,29.67,10,10,10,17,9,25,0.00,7,,265
2012-12-7,23,13,3,15,12,-1,81,71,63,30.13,30.05,29.97,10,10,10,13,7,,0.00,4,,313
2012-12-8,24,18,12,20,13,7,86,76,68,30.14,30.10,30.01,10,10,4,7,2,,0.00,8,Snow,123
2012-12-9,27,18,8,23,15,1,92,82,73,30.15,30.06,29.97,10,3,0,16,7,21,0.12,8,Fog-Snow,18
2012-12-10,14,2,-9,4,-5,-14,92,79,64,30.04,29.95,29.86,10,9,2,12,6,,0.00,2,,329
2012-12-11,14,3,-8,7,1,-13,87,79,70,30.04,29.80,29.68,10,5,1,9,2,16,0.00,7,Snow,279
2012-12-12,25,12,-2,19,9,-8,89,82,75,30.06,29.97,29.88,10,10,7,13,3,,0.00,6,,127
2012-12-13,19,10,1,17,10,-5,89,82,74,30.20,30.07,29.93,10,10,7,12,4,,0.00,6,,342
2012-12-14,28,14,0,24,12,-6,93,86,75,30.21,30.09,29.93,10,6,0,14,2,21,0.00,6,Fog,122
2012-12-15,34,31,28,32,30,24,93,89,85,29.90,29.64,29.53,10,4,1,12,6,,0.35,8,Rain-Snow,84
2012-12-16,33,26,19,31,22,16,93,88,85,29.81,29.68,29.52,10,7,2,16,9,21,0.02,8,Snow,313
2012-12-17,21,19,16,17,16,13,92,86,78,29.80,29.75,29.65,10,10,6,9,6,,0.00,8,,278
2012-12-18,23,20,16,19,17,13,96,87,80,29.81,29.74,29.65,10,10,7,6,2,,0.00,8,Snow,120
2012-12-19,28,24,21,24,20,16,93,86,74,30.04,29.88,29.75,10,7,2,8,2,,0.01,7,Snow,187
2012-12-20,21,14,6,18,13,2,93,84,79,30.13,30.02,29.93,10,9,4,21,11,28,0.00,8,Snow,338
2012-12-21,12,5,-4,5,-2,-8,84,79,71,30.33,30.23,30.03,10,10,9,15,9,,0.00,0,,324
2012-12-22,19,7,-5,12,2,-11,87,79,71,30.23,30.10,29.93,10,8,2,20,5,,0.00,5,Snow,329
2012-12-23,14,8,1,5,3,-2,88,78,67,30.22,30.17,30.10,10,10,5,12,9,,0.00,3,Snow,336
2012-12-24,3,0,-4,-2,-7,-9,83,76,69,30.38,30.22,30.13,10,9,6,14,11,,0.00,4,,331
2012-12-25,3,-6,-14,-5,-14,-19,83,76,69,30.58,30.45,30.29,10,9,5,9,5,,0.00,2,,311
2012-12-26,12,0,-11,3,-5,-17,84,79,64,30.48,30.41,30.34,10,10,10,5,1,,0.00,5,,316
2012-12-27,21,11,1,12,5,-3,84,80,68,30.34,30.29,30.22,10,10,4,6,1,,0.00,7,Snow,165
2012-12-28,21,12,3,16,8,0,88,84,78,30.22,30.12,29.97,10,6,2,4,0,,0.00,8,Snow,315
2012-12-29,16,6,-7,13,7,-12,88,80,68,30.15,30.03,29.93,10,7,2,9,3,,0.00,7,Snow,268
2012-12-30,19,5,-9,13,2,-15,87,78,68,30.18,30.00,29.81,10,8,2,23,3,28,0.00,4,Snow,229
2012-12-31,14,0,-15,7,-6,-19,83,74,64,30.30,30.16,29.88,10,8,2,23,14,30,0.00,4,Snow,314